sensor_id;sensor_type;location;lat;lon;timestamp;pressure;altitude;pressure_sealevel;temperature;humidity
21086;BME280;34247;50.064;19.970;2023-04-16T00:01:30;98904.91;;;9.47;91.37
21086;BME280;34247;50.064;19.970;2023-04-16T00:02:44;98915.00;;;9.42;92.01
21086;BME280;34247;50.064;19.970;2023-04-16T00:04:28;98913.78;;;9.33;92.63
21086;BME280;34247;50.064;19.970;2023-04-16T00:06:09;98917.09;;;9.37;92.83
21086;BME280;34247;50.064;19.970;2023-04-16T00:07:30;98906.69;;;9.34;92.06
21086;BME280;34247;50.064;19.970;2023-04-16T00:08:34;98913.50;;;9.38;91.93
21086;BME280;34247;50.064;19.970;2023-04-16T00:09:43;98907.88;;;9.43;91.78
21086;BME280;34247;50.064;19.970;2023-04-16T00:11:00;98906.28;;;9.40;91.77
21086;BME280;34247;50.064;19.970;2023-04-16T00:12:12;98909.16;;;9.37;91.97
21086;BME280;34247;50.064;19.970;2023-04-16T00:13:19;98919.00;;;9.35;92.10
21086;BME280;34247;50.064;19.970;2023-04-16T00:14:30;98915.59;;;9.33;92.22
21086;BME280;34247;50.064;19.970;2023-04-16T00:15:39;98912.22;;;9.31;92.76
21086;BME280;34247;50.064;19.970;2023-04-16T00:16:42;98917.28;;;9.34;92.72
21086;BME280;34247;50.064;19.970;2023-04-16T00:17:49;98922.28;;;9.38;91.81
21086;BME280;34247;50.064;19.970;2023-04-16T00:19:16;98914.13;;;9.42;91.54
21086;BME280;34247;50.064;19.970;2023-04-16T00:20:32;98921.13;;;9.43;91.50
21086;BME280;34247;50.064;19.970;2023-04-16T00:21:41;98917.63;;;9.42;91.31
21086;BME280;34247;50.064;19.970;2023-04-16T00:22:45;98913.06;;;9.44;91.12
21086;BME280;34247;50.064;19.970;2023-04-16T00:23:54;98919.00;;;9.48;91.08
21086;BME280;34247;50.064;19.970;2023-04-16T00:25:01;98922.59;;;9.47;91.11
21086;BME280;34247;50.064;19.970;2023-04-16T00:26:09;98913.81;;;9.46;90.90
21086;BME280;34247;50.064;19.970;2023-04-16T00:27:53;98914.75;;;9.45;90.80
21086;BME280;34247;50.064;19.970;2023-04-16T00:29:15;98916.69;;;9.43;91.09
21086;BME280;34247;50.064;19.970;2023-04-16T00:30:26;98917.41;;;9.45;90.88
21086;BME280;34247;50.064;19.970;2023-04-16T00:31:33;98922.59;;;9.47;90.64
21086;BME280;34247;50.064;19.970;2023-04-16T00:32:39;98924.41;;;9.46;90.95
21086;BME280;34247;50.064;19.970;2023-04-16T00:34:02;98920.78;;;9.47;90.54
21086;BME280;34247;50.064;19.970;2023-04-16T00:35:19;98918.13;;;9.47;90.48
21086;BME280;34247;50.064;19.970;2023-04-16T00:36:35;98922.59;;;9.47;90.33
21086;BME280;34247;50.064;19.970;2023-04-16T00:37:42;98919.84;;;9.48;89.86
21086;BME280;34247;50.064;19.970;2023-04-16T00:38:49;98923.31;;;9.49;89.78
21086;BME280;34247;50.064;19.970;2023-04-16T00:39:55;98931.72;;;9.43;90.37
21086;BME280;34247;50.064;19.970;2023-04-16T00:41:25;98925.78;;;9.39;90.83
21086;BME280;34247;50.064;19.970;2023-04-16T00:42:32;98930.34;;;9.37;90.99
21086;BME280;34247;50.064;19.970;2023-04-16T00:43:39;98932.75;;;9.40;90.92
21086;BME280;34247;50.064;19.970;2023-04-16T00:44:51;98936.25;;;9.40;90.62
21086;BME280;34247;50.064;19.970;2023-04-16T00:46:03;98939.75;;;9.41;90.43
21086;BME280;34247;50.064;19.970;2023-04-16T00:47:15;98942.50;;;9.39;90.42
21086;BME280;34247;50.064;19.970;2023-04-16T00:48:23;98946.13;;;9.38;90.75
21086;BME280;34247;50.064;19.970;2023-04-16T00:49:43;98952.25;;;9.39;90.77
21086;BME280;34247;50.064;19.970;2023-04-16T00:51:03;98954.38;;;9.34;91.05
21086;BME280;34247;50.064;19.970;2023-04-16T00:52:11;98952.38;;;9.37;90.95
21086;BME280;34247;50.064;19.970;2023-04-16T00:53:15;98961.28;;;9.36;90.90
21086;BME280;34247;50.064;19.970;2023-04-16T00:54:19;98960.63;;;9.33;91.09
21086;BME280;34247;50.064;19.970;2023-04-16T00:55:23;98961.47;;;9.33;90.92
21086;BME280;34247;50.064;19.970;2023-04-16T00:56:27;98961.47;;;9.33;91.16
21086;BME280;34247;50.064;19.970;2023-04-16T00:57:31;98968.69;;;9.31;90.98
21086;BME280;34247;50.064;19.970;2023-04-16T00:58:34;98953.84;;;9.29;91.20
21086;BME280;34247;50.064;19.970;2023-04-16T00:59:40;98960.63;;;9.33;91.26
21086;BME280;34247;50.064;19.970;2023-04-16T01:00:58;98963.38;;;9.31;91.45
21086;BME280;34247;50.064;19.970;2023-04-16T01:02:02;98962.00;;;9.26;91.70
21086;BME280;34247;50.064;19.970;2023-04-16T01:03:07;98960.84;;;9.30;91.36
21086;BME280;34247;50.064;19.970;2023-04-16T01:04:14;98968.78;;;9.30;91.73
21086;BME280;34247;50.064;19.970;2023-04-16T01:05:20;98967.28;;;9.26;91.70
21086;BME280;34247;50.064;19.970;2023-04-16T01:06:24;98974.09;;;9.30;91.63
21086;BME280;34247;50.064;19.970;2023-04-16T01:07:30;98984.13;;;9.25;91.49
21086;BME280;34247;50.064;19.970;2023-04-16T01:08:34;98987.63;;;9.25;91.42
21086;BME280;34247;50.064;19.970;2023-04-16T01:09:38;98979.78;;;9.24;91.48
21086;BME280;34247;50.064;19.970;2023-04-16T01:10:43;98982.56;;;9.22;91.47
21086;BME280;34247;50.064;19.970;2023-04-16T01:11:47;98992.50;;;9.19;91.32
21086;BME280;34247;50.064;19.970;2023-04-16T01:12:52;98981.91;;;9.19;91.73
21086;BME280;34247;50.064;19.970;2023-04-16T01:14:13;98981.91;;;9.19;91.35
21086;BME280;34247;50.064;19.970;2023-04-16T01:15:19;98991.00;;;9.15;91.52
21086;BME280;34247;50.064;19.970;2023-04-16T01:16:23;98986.56;;;9.15;91.48
21086;BME280;34247;50.064;19.970;2023-04-16T01:17:30;98976.09;;;9.14;91.70
21086;BME280;34247;50.064;19.970;2023-04-16T01:18:35;98980.84;;;9.08;91.98
21086;BME280;34247;50.064;19.970;2023-04-16T01:19:39;98983.25;;;9.11;92.14
21086;BME280;34247;50.064;19.970;2023-04-16T01:20:43;98985.06;;;9.11;92.10
21086;BME280;34247;50.064;19.970;2023-04-16T01:21:47;98981.06;;;9.05;92.21
21086;BME280;34247;50.064;19.970;2023-04-16T01:22:51;98982.75;;;9.06;92.34
21086;BME280;34247;50.064;19.970;2023-04-16T01:23:54;98984.44;;;9.07;92.52
21086;BME280;34247;50.064;19.970;2023-04-16T01:24:58;98981.38;;;9.14;91.73
21086;BME280;34247;50.064;19.970;2023-04-16T01:26:02;98977.78;;;9.15;91.70
21086;BME280;34247;50.064;19.970;2023-04-16T01:27:09;98977.66;;;9.16;91.48
21086;BME280;34247;50.064;19.970;2023-04-16T01:28:19;98982.34;;;9.13;91.25
21086;BME280;34247;50.064;19.970;2023-04-16T01:29:31;98974.41;;;9.13;91.05
21086;BME280;34247;50.064;19.970;2023-04-16T01:30:44;98968.88;;;9.16;91.16
21086;BME280;34247;50.064;19.970;2023-04-16T01:32:00;98968.59;;;9.20;90.87
21086;BME280;34247;50.064;19.970;2023-04-16T01:33:07;98969.44;;;9.21;90.53
21086;BME280;34247;50.064;19.970;2023-04-16T01:34:11;98971.84;;;9.24;90.24
21086;BME280;34247;50.064;19.970;2023-04-16T01:35:16;98970.91;;;9.25;89.98
21086;BME280;34247;50.064;19.970;2023-04-16T01:36:29;98969.50;;;9.19;90.14
21086;BME280;34247;50.064;19.970;2023-04-16T01:37:41;98967.63;;;9.21;90.01
21086;BME280;34247;50.064;19.970;2023-04-16T01:38:46;98969.44;;;9.21;89.91
21086;BME280;34247;50.064;19.970;2023-04-16T01:39:54;98966.66;;;9.22;89.96
21086;BME280;34247;50.064;19.970;2023-04-16T01:41:05;98975.75;;;9.18;89.71
21086;BME280;34247;50.064;19.970;2023-04-16T01:42:26;98978.22;;;9.21;89.84
21086;BME280;34247;50.064;19.970;2023-04-16T01:43:37;98979.91;;;9.22;89.56
21086;BME280;34247;50.064;19.970;2023-04-16T01:44:48;98971.13;;;9.22;89.47
21086;BME280;34247;50.064;19.970;2023-04-16T01:46:26;98977.38;;;9.21;89.62
21086;BME280;34247;50.064;19.970;2023-04-16T01:47:35;98974.06;;;9.17;89.30
21086;BME280;34247;50.064;19.970;2023-04-16T01:48:43;98978.50;;;9.17;89.53
21086;BME280;34247;50.064;19.970;2023-04-16T01:50:07;98979.78;;;9.11;89.52
21086;BME280;34247;50.064;19.970;2023-04-16T01:51:21;98975.03;;;9.16;89.47
21086;BME280;34247;50.064;19.970;2023-04-16T01:52:37;98964.84;;;9.10;89.59
21086;BME280;34247;50.064;19.970;2023-04-16T01:53:49;98971.38;;;9.04;90.19
21086;BME280;34247;50.064;19.970;2023-04-16T01:54:55;98967.81;;;9.05;90.37
21086;BME280;34247;50.064;19.970;2023-04-16T01:56:16;98961.44;;;9.08;90.31
21086;BME280;34247;50.064;19.970;2023-04-16T01:57:34;98970.47;;;9.05;90.10
21086;BME280;34247;50.064;19.970;2023-04-16T01:58:41;98961.56;;;9.06;89.80
21086;BME280;34247;50.064;19.970;2023-04-16T02:00:06;98958.38;;;9.01;90.23
21086;BME280;34247;50.064;19.970;2023-04-16T04:48:14;99142.75;;;8.31;91.08
21086;BME280;34247;50.064;19.970;2023-04-16T04:50:00;99143.16;;;8.39;91.09
21086;BME280;34247;50.064;19.970;2023-04-16T04:51:59;99145.53;;;8.44;91.06
21086;BME280;34247;50.064;19.970;2023-04-16T04:54:08;99145.81;;;8.39;91.36
21086;BME280;34247;50.064;19.970;2023-04-16T04:56:08;99148.56;;;8.38;91.73
21086;BME280;34247;50.064;19.970;2023-04-16T04:58:07;99153.47;;;8.44;91.81
21086;BME280;34247;50.064;19.970;2023-04-16T05:00:07;99144.31;;;8.49;91.98
21086;BME280;34247;50.064;19.970;2023-04-16T05:02:12;99148.56;;;8.52;91.58
21086;BME280;34247;50.064;19.970;2023-04-16T05:04:12;99147.44;;;8.56;91.49
21086;BME280;34247;50.064;19.970;2023-04-16T05:06:12;99148.94;;;8.60;91.27
21086;BME280;34247;50.064;19.970;2023-04-16T05:08:11;99157.34;;;8.67;91.33
21086;BME280;34247;50.064;19.970;2023-04-16T05:10:13;99159.59;;;8.73;90.99
21086;BME280;34247;50.064;19.970;2023-04-16T05:12:12;99160.72;;;8.69;91.40
21086;BME280;34247;50.064;19.970;2023-04-16T05:14:15;99168.59;;;8.70;91.53
21086;BME280;34247;50.064;19.970;2023-04-16T05:16:18;99168.88;;;8.80;91.18
21086;BME280;34247;50.064;19.970;2023-04-16T05:18:22;99173.88;;;8.84;91.17
21086;BME280;34247;50.064;19.970;2023-04-16T05:20:36;99171.22;;;8.99;90.21
21086;BME280;34247;50.064;19.970;2023-04-16T05:22:42;99176.31;;;9.02;89.75
21086;BME280;34247;50.064;19.970;2023-04-16T05:24:56;99177.31;;;9.14;89.65
21086;BME280;34247;50.064;19.970;2023-04-16T05:26:56;99189.59;;;9.29;88.76
21086;BME280;34247;50.064;19.970;2023-04-16T05:28:55;99186.38;;;9.51;88.36
21086;BME280;34247;50.064;19.970;2023-04-16T05:31:03;99187.31;;;9.77;87.08
21086;BME280;34247;50.064;19.970;2023-04-16T05:33:02;99188.13;;;10.17;85.90
21086;BME280;34247;50.064;19.970;2023-04-16T05:35:01;99186.16;;;10.59;84.76
21086;BME280;34247;50.064;19.970;2023-04-16T05:36:59;99185.16;;;10.98;81.18
21086;BME280;34247;50.064;19.970;2023-04-16T05:38:57;99190.59;;;11.33;79.36
21086;BME280;34247;50.064;19.970;2023-04-16T05:40:57;99193.44;;;11.67;75.38
21086;BME280;34247;50.064;19.970;2023-04-16T05:42:55;99186.03;;;12.18;75.68
21086;BME280;34247;50.064;19.970;2023-04-16T05:44:53;99188.72;;;12.40;73.91
21086;BME280;34247;50.064;19.970;2023-04-16T05:46:51;99185.59;;;12.58;72.29
21086;BME280;34247;50.064;19.970;2023-04-16T05:48:50;99177.84;;;12.88;69.29
21086;BME280;34247;50.064;19.970;2023-04-16T05:50:48;99183.06;;;13.12;69.49
21086;BME280;34247;50.064;19.970;2023-04-16T05:52:48;99183.41;;;13.30;67.09
21086;BME280;34247;50.064;19.970;2023-04-16T05:54:58;99190.13;;;13.89;68.40
21086;BME280;34247;50.064;19.970;2023-04-16T05:57:22;99184.59;;;14.13;64.15
21086;BME280;34247;50.064;19.970;2023-04-16T05:59:22;99185.66;;;14.73;64.24
21086;BME280;34247;50.064;19.970;2023-04-16T06:01:27;99182.50;;;14.88;62.16
21086;BME280;34247;50.064;19.970;2023-04-16T06:03:30;99186.41;;;14.84;61.00
21086;BME280;34247;50.064;19.970;2023-04-16T06:05:28;99182.84;;;15.05;60.37
21086;BME280;34247;50.064;19.970;2023-04-16T06:07:34;99186.03;;;15.29;60.50
21086;BME280;34247;50.064;19.970;2023-04-16T06:09:39;99187.31;;;15.54;57.67
21086;BME280;34247;50.064;19.970;2023-04-16T06:11:44;99187.69;;;15.80;56.86
21086;BME280;34247;50.064;19.970;2023-04-16T06:13:46;99188.94;;;16.05;58.29
21086;BME280;34247;50.064;19.970;2023-04-16T06:15:44;99192.41;;;16.44;57.00
21086;BME280;34247;50.064;19.970;2023-04-16T06:17:46;99184.00;;;17.14;55.52
21086;BME280;34247;50.064;19.970;2023-04-16T06:19:56;99185.06;;;17.03;52.65
21086;BME280;34247;50.064;19.970;2023-04-16T06:22:10;99194.47;;;17.07;51.96
21086;BME280;34247;50.064;19.970;2023-04-16T06:24:14;99196.81;;;16.92;53.75
21086;BME280;34247;50.064;19.970;2023-04-16T06:26:15;99196.06;;;17.82;52.24
21086;BME280;34247;50.064;19.970;2023-04-16T06:28:19;99199.97;;;18.06;51.09
21086;BME280;34247;50.064;19.970;2023-04-16T06:30:19;99202.19;;;17.65;49.81
21086;BME280;34247;50.064;19.970;2023-04-16T06:32:25;99205.06;;;18.17;51.59
21086;BME280;34247;50.064;19.970;2023-04-16T06:34:28;99211.38;;;18.26;50.92
21086;BME280;34247;50.064;19.970;2023-04-16T06:36:32;99206.06;;;18.78;49.48
21086;BME280;34247;50.064;19.970;2023-04-16T06:38:45;99204.53;;;18.75;48.74
21086;BME280;34247;50.064;19.970;2023-04-16T06:40:30;99206.69;;;18.71;48.16
21086;BME280;34247;50.064;19.970;2023-04-16T06:42:18;99200.91;;;19.26;47.73
21086;BME280;34247;50.064;19.970;2023-04-16T06:44:18;99207.31;;;19.76;47.16
21086;BME280;34247;50.064;19.970;2023-04-16T06:46:34;99204.69;;;20.00;45.41
21086;BME280;34247;50.064;19.970;2023-04-16T06:48:32;99206.91;;;20.46;43.87
21086;BME280;34247;50.064;19.970;2023-04-16T06:50:31;99201.16;;;20.32;43.70
21086;BME280;34247;50.064;19.970;2023-04-16T06:52:34;99208.00;;;20.92;44.55
21086;BME280;34247;50.064;19.970;2023-04-16T06:54:33;99208.09;;;21.31;42.32
21086;BME280;34247;50.064;19.970;2023-04-16T06:56:38;99210.47;;;21.88;41.75
21086;BME280;34247;50.064;19.970;2023-04-16T06:58:36;99216.84;;;21.95;41.20
21086;BME280;34247;50.064;19.970;2023-04-16T07:00:38;99223.72;;;22.29;40.59
21086;BME280;34247;50.064;19.970;2023-04-16T07:02:47;99222.34;;;22.71;39.84
21086;BME280;34247;50.064;19.970;2023-04-16T07:04:50;99220.28;;;23.25;39.25
21086;BME280;34247;50.064;19.970;2023-04-16T07:06:48;99219.44;;;22.72;38.72
21086;BME280;34247;50.064;19.970;2023-04-16T07:09:11;99223.63;;;23.13;39.16
21086;BME280;34247;50.064;19.970;2023-04-16T07:11:16;99207.91;;;23.37;37.78
21086;BME280;34247;50.064;19.970;2023-04-16T07:13:14;99217.72;;;23.89;36.80
21086;BME280;34247;50.064;19.970;2023-04-16T07:15:12;99215.44;;;24.08;37.70
21086;BME280;34247;50.064;19.970;2023-04-16T07:17:18;99214.91;;;23.98;37.09
21086;BME280;34247;50.064;19.970;2023-04-16T07:19:21;99221.88;;;24.71;36.22
21086;BME280;34247;50.064;19.970;2023-04-16T07:21:24;99217.22;;;24.93;35.17
21086;BME280;34247;50.064;19.970;2023-04-16T07:23:26;99219.63;;;24.53;35.66
21086;BME280;34247;50.064;19.970;2023-04-16T07:25:36;99224.97;;;24.96;35.56
21086;BME280;34247;50.064;19.970;2023-04-16T07:27:48;99222.44;;;24.38;36.45
21086;BME280;34247;50.064;19.970;2023-04-16T07:29:50;99219.31;;;25.25;35.46
21086;BME280;34247;50.064;19.970;2023-04-16T07:31:50;99226.44;;;25.26;35.19
21086;BME280;34247;50.064;19.970;2023-04-16T07:34:21;99228.59;;;25.38;34.70
21086;BME280;34247;50.064;19.970;2023-04-16T07:36:26;99231.16;;;25.52;34.24
21086;BME280;34247;50.064;19.970;2023-04-16T07:38:30;99235.59;;;25.60;34.73
21086;BME280;34247;50.064;19.970;2023-04-16T07:40:36;99229.44;;;25.79;33.88
21086;BME280;34247;50.064;19.970;2023-04-16T07:42:35;99236.91;;;25.29;34.22
21086;BME280;34247;50.064;19.970;2023-04-16T07:44:36;99235.31;;;25.48;34.07
21086;BME280;34247;50.064;19.970;2023-04-16T07:46:35;99244.44;;;26.50;32.57
21086;BME280;34247;50.064;19.970;2023-04-16T07:48:36;99246.50;;;26.94;32.01
21086;BME280;34247;50.064;19.970;2023-04-16T07:50:36;99241.84;;;26.02;32.22
21086;BME280;34247;50.064;19.970;2023-04-16T07:53:03;99248.41;;;26.47;31.78
21086;BME280;34247;50.064;19.970;2023-04-16T07:55:06;99243.91;;;25.52;32.86
21086;BME280;34247;50.064;19.970;2023-04-16T07:57:09;99256.13;;;25.00;33.55
21086;BME280;34247;50.064;19.970;2023-04-16T07:59:10;99252.00;;;24.33;35.24
21086;BME280;34247;50.064;19.970;2023-04-16T08:01:09;99251.25;;;24.67;34.87
21086;BME280;34247;50.064;19.970;2023-04-16T08:03:15;99260.78;;;25.41;33.50
21086;BME280;34247;50.064;19.970;2023-04-16T08:05:17;99263.63;;;25.26;34.09
21086;BME280;34247;50.064;19.970;2023-04-16T08:07:16;99252.91;;;26.07;32.74
21086;BME280;34247;50.064;19.970;2023-04-16T08:09:14;99261.09;;;26.20;32.43
21086;BME280;34247;50.064;19.970;2023-04-16T08:11:23;99265.63;;;25.45;33.29
21086;BME280;34247;50.064;19.970;2023-04-16T08:13:25;99258.06;;;25.82;32.91
21086;BME280;34247;50.064;19.970;2023-04-16T08:15:25;99267.06;;;26.63;31.42
21086;BME280;34247;50.064;19.970;2023-04-16T08:17:28;99266.44;;;26.94;30.90
21086;BME280;34247;50.064;19.970;2023-04-16T08:19:27;99263.22;;;27.44;30.43
21086;BME280;34247;50.064;19.970;2023-04-16T08:21:29;99268.84;;;27.62;29.83
21086;BME280;34247;50.064;19.970;2023-04-16T08:23:28;99265.91;;;27.57;30.05
21086;BME280;34247;50.064;19.970;2023-04-16T08:25:27;99267.03;;;27.30;29.35
21086;BME280;34247;50.064;19.970;2023-04-16T08:27:26;99260.88;;;26.02;31.51
21086;BME280;34247;50.064;19.970;2023-04-16T08:29:25;99267.63;;;26.26;31.17
21086;BME280;34247;50.064;19.970;2023-04-16T08:31:33;99269.97;;;25.74;31.29
21086;BME280;34247;50.064;19.970;2023-04-16T08:33:31;99261.75;;;25.68;32.02
21086;BME280;34247;50.064;19.970;2023-04-16T08:35:29;99264.81;;;25.86;31.48
21086;BME280;34247;50.064;19.970;2023-04-16T08:37:28;99259.75;;;25.83;31.66
21086;BME280;34247;50.064;19.970;2023-04-16T08:39:27;99265.81;;;26.46;30.83
21086;BME280;34247;50.064;19.970;2023-04-16T08:41:31;99262.75;;;26.15;31.06
21086;BME280;34247;50.064;19.970;2023-04-16T08:43:33;99263.09;;;26.73;30.57
21086;BME280;34247;50.064;19.970;2023-04-16T08:45:35;99262.84;;;27.34;29.81
21086;BME280;34247;50.064;19.970;2023-04-16T08:47:35;99266.16;;;27.42;29.57
21086;BME280;34247;50.064;19.970;2023-04-16T08:49:42;99273.53;;;27.15;29.42
21086;BME280;34247;50.064;19.970;2023-04-16T08:51:44;99280.91;;;26.82;30.12
21086;BME280;34247;50.064;19.970;2023-04-16T08:54:08;99272.94;;;27.13;29.79
21086;BME280;34247;50.064;19.970;2023-04-16T08:56:14;99272.91;;;27.33;29.51
21086;BME280;34247;50.064;19.970;2023-04-16T08:58:22;99269.88;;;27.74;28.60
21086;BME280;34247;50.064;19.970;2023-04-16T09:00:31;99266.34;;;27.67;28.61
21086;BME280;34247;50.064;19.970;2023-04-16T09:02:33;99279.19;;;26.94;29.39
21086;BME280;34247;50.064;19.970;2023-04-16T09:04:35;99273.97;;;26.46;29.95
21086;BME280;34247;50.064;19.970;2023-04-16T09:06:37;99270.72;;;25.62;31.05
21086;BME280;34247;50.064;19.970;2023-04-16T09:08:38;99277.97;;;24.64;32.96
21086;BME280;34247;50.064;19.970;2023-04-16T09:10:47;99273.94;;;24.60;32.50
21086;BME280;34247;50.064;19.970;2023-04-16T09:12:49;99277.91;;;24.36;32.93
21086;BME280;34247;50.064;19.970;2023-04-16T09:14:49;99272.75;;;24.05;33.45
21086;BME280;34247;50.064;19.970;2023-04-16T09:16:52;99276.09;;;23.56;34.10
21086;BME280;34247;50.064;19.970;2023-04-16T09:18:51;99273.41;;;23.26;34.46
21086;BME280;34247;50.064;19.970;2023-04-16T09:20:51;99279.56;;;22.82;35.60
21086;BME280;34247;50.064;19.970;2023-04-16T09:22:56;99277.38;;;22.63;35.50
21086;BME280;34247;50.064;19.970;2023-04-16T09:24:54;99279.97;;;22.34;36.40
21086;BME280;34247;50.064;19.970;2023-04-16T09:26:57;99275.84;;;22.15;37.10
21086;BME280;34247;50.064;19.970;2023-04-16T09:28:56;99276.69;;;22.15;36.78
21086;BME280;34247;50.064;19.970;2023-04-16T09:31:18;99278.69;;;21.90;36.90
21086;BME280;34247;50.064;19.970;2023-04-16T09:33:32;99276.44;;;21.63;36.68
21086;BME280;34247;50.064;19.970;2023-04-16T09:35:11;99280.66;;;21.65;36.51
21086;BME280;34247;50.064;19.970;2023-04-16T09:36:54;99278.63;;;21.67;36.89
21086;BME280;34247;50.064;19.970;2023-04-16T09:38:50;99283.56;;;21.56;37.61
21086;BME280;34247;50.064;19.970;2023-04-16T09:40:42;99285.53;;;21.23;38.16
21086;BME280;34247;50.064;19.970;2023-04-16T09:42:27;99283.00;;;21.13;38.07
21086;BME280;34247;50.064;19.970;2023-04-16T09:44:12;99294.84;;;20.96;38.41
21086;BME280;34247;50.064;19.970;2023-04-16T09:46:01;99287.09;;;20.76;38.64
21086;BME280;34247;50.064;19.970;2023-04-16T09:47:45;99283.91;;;20.56;39.40
21086;BME280;34247;50.064;19.970;2023-04-16T09:49:44;99285.09;;;20.62;38.46
21086;BME280;34247;50.064;19.970;2023-04-16T09:51:37;99284.91;;;20.47;40.04
21086;BME280;34247;50.064;19.970;2023-04-16T09:53:38;99282.34;;;20.29;38.72
21086;BME280;34247;50.064;19.970;2023-04-16T09:55:28;99286.88;;;20.13;38.80
21086;BME280;34247;50.064;19.970;2023-04-16T09:57:10;99289.84;;;19.85;39.54
21086;BME280;34247;50.064;19.970;2023-04-16T09:58:54;99289.31;;;19.81;39.64
21086;BME280;34247;50.064;19.970;2023-04-16T10:00:35;99286.25;;;19.76;40.01
21086;BME280;34247;50.064;19.970;2023-04-16T10:04:21;99285.47;;;19.16;40.41
21086;BME280;34247;50.064;19.970;2023-04-16T10:06:27;99289.22;;;19.23;40.10
21086;BME280;34247;50.064;19.970;2023-04-16T10:08:15;99285.78;;;19.13;41.31
21086;BME280;34247;50.064;19.970;2023-04-16T10:10:02;99281.94;;;19.15;40.99
21086;BME280;34247;50.064;19.970;2023-04-16T10:11:45;99277.06;;;19.19;41.36
21086;BME280;34247;50.064;19.970;2023-04-16T10:13:24;99283.25;;;19.11;41.16
21086;BME280;34247;50.064;19.970;2023-04-16T10:15:10;99280.75;;;19.18;41.06
21086;BME280;34247;50.064;19.970;2023-04-16T10:16:51;99279.88;;;19.09;41.23
21086;BME280;34247;50.064;19.970;2023-04-16T10:18:35;99280.34;;;19.05;40.84
21086;BME280;34247;50.064;19.970;2023-04-16T10:20:36;99281.63;;;18.92;40.99
21086;BME280;34247;50.064;19.970;2023-04-16T10:22:37;99277.94;;;18.93;40.80
21086;BME280;34247;50.064;19.970;2023-04-16T10:24:35;99279.22;;;18.89;40.95
21086;BME280;34247;50.064;19.970;2023-04-16T10:26:35;99285.84;;;18.95;40.55
21086;BME280;34247;50.064;19.970;2023-04-16T10:28:34;99282.59;;;18.83;40.67
21086;BME280;34247;50.064;19.970;2023-04-16T10:30:32;99288.81;;;18.84;40.43
21086;BME280;34247;50.064;19.970;2023-04-16T10:32:31;99279.22;;;18.89;40.12
21086;BME280;34247;50.064;19.970;2023-04-16T10:34:31;99280.25;;;18.88;39.84
21086;BME280;34247;50.064;19.970;2023-04-16T10:36:34;99278.84;;;18.76;40.27
21086;BME280;34247;50.064;19.970;2023-04-16T10:38:51;99282.06;;;18.62;40.45
21086;BME280;34247;50.064;19.970;2023-04-16T10:40:59;99280.59;;;18.50;40.07
21086;BME280;34247;50.064;19.970;2023-04-16T10:42:59;99278.91;;;18.49;40.84
21086;BME280;34247;50.064;19.970;2023-04-16T10:45:11;99288.72;;;18.58;40.45
21086;BME280;34247;50.064;19.970;2023-04-16T10:47:13;99281.06;;;18.45;40.69
21086;BME280;34247;50.064;19.970;2023-04-16T10:49:34;99283.91;;;18.43;40.87
21086;BME280;34247;50.064;19.970;2023-04-16T10:51:36;99283.97;;;18.52;40.72
21086;BME280;34247;50.064;19.970;2023-04-16T10:53:38;99281.19;;;18.61;40.59
21086;BME280;34247;50.064;19.970;2023-04-16T10:58:30;99288.56;;;18.59;40.63
21086;BME280;34247;50.064;19.970;2023-04-16T11:02:55;99292.25;;;18.58;40.32
21086;BME280;34247;50.064;19.970;2023-04-16T11:04:56;99291.19;;;18.51;40.32
21086;BME280;34247;50.064;19.970;2023-04-16T11:09:58;99294.25;;;18.74;40.36
21086;BME280;34247;50.064;19.970;2023-04-16T11:12:04;99293.41;;;18.73;39.58
21086;BME280;34247;50.064;19.970;2023-04-16T11:14:33;99286.91;;;18.76;39.49
21086;BME280;34247;50.064;19.970;2023-04-16T11:16:34;99296.94;;;18.74;38.22
21086;BME280;34247;50.064;19.970;2023-04-16T11:18:37;99290.03;;;18.71;37.29
21086;BME280;34247;50.064;19.970;2023-04-16T11:20:40;99290.25;;;18.60;38.56
21086;BME280;34247;50.064;19.970;2023-04-16T11:22:51;99289.41;;;18.78;38.14
21086;BME280;34247;50.064;19.970;2023-04-16T11:24:57;99290.78;;;18.82;38.62
21086;BME280;34247;50.064;19.970;2023-04-16T11:27:00;99288.38;;;18.70;38.29
21086;BME280;34247;50.064;19.970;2023-04-16T11:28:45;99288.19;;;18.72;37.91
21086;BME280;34247;50.064;19.970;2023-04-16T11:30:45;99292.03;;;18.52;37.22
21086;BME280;34247;50.064;19.970;2023-04-16T11:32:45;99297.66;;;18.40;38.13
21086;BME280;34247;50.064;19.970;2023-04-16T11:34:57;99292.97;;;18.42;38.66
21086;BME280;34247;50.064;19.970;2023-04-16T11:36:59;99294.44;;;18.55;38.52
21086;BME280;34247;50.064;19.970;2023-04-16T11:39:01;99297.19;;;18.63;37.56
21086;BME280;34247;50.064;19.970;2023-04-16T11:41:00;99285.50;;;18.72;38.22
21086;BME280;34247;50.064;19.970;2023-04-16T11:43:34;99292.13;;;18.78;38.13
21086;BME280;34247;50.064;19.970;2023-04-16T11:45:36;99295.69;;;18.86;38.32
21086;BME280;34247;50.064;19.970;2023-04-16T11:47:49;99282.69;;;18.99;37.00
21086;BME280;34247;50.064;19.970;2023-04-16T11:49:48;99292.47;;;19.09;37.25
21086;BME280;34247;50.064;19.970;2023-04-16T11:51:51;99297.88;;;19.09;36.63
21086;BME280;34247;50.064;19.970;2023-04-16T11:53:58;99297.22;;;19.15;36.98
21086;BME280;34247;50.064;19.970;2023-04-16T11:56:00;99288.00;;;19.17;36.56
21086;BME280;34247;50.064;19.970;2023-04-16T11:58:14;99287.31;;;19.15;36.74
21086;BME280;34247;50.064;19.970;2023-04-16T12:00:13;99292.44;;;19.00;37.24
21086;BME280;34247;50.064;19.970;2023-04-16T12:02:16;99286.16;;;18.92;37.16
21086;BME280;34247;50.064;19.970;2023-04-16T12:04:18;99300.06;;;18.87;37.51
21086;BME280;34247;50.064;19.970;2023-04-16T12:06:18;99282.25;;;18.86;37.43
21086;BME280;34247;50.064;19.970;2023-04-16T12:08:28;99288.81;;;18.84;37.35
21086;BME280;34247;50.064;19.970;2023-04-16T12:10:31;99285.28;;;18.83;37.26
21086;BME280;34247;50.064;19.970;2023-04-16T12:12:31;99294.19;;;18.66;37.28